sensor_id;sensor_type;location;lat;lon;timestamp;pressure;altitude;pressure_sealevel;temperature;humidity
56006;BME280;41888;44.696;10.522;2023-03-14T00:00:16;99823.47;;;10.61;100.00
56006;BME280;41888;44.696;10.522;2023-03-14T00:02:42;99827.63;;;10.56;100.00
56006;BME280;41888;44.696;10.522;2023-03-14T00:05:09;99819.03;;;10.54;100.00
56006;BME280;41888;44.696;10.522;2023-03-14T00:07:37;99814.31;;;10.56;100.00
56006;BME280;41888;44.696;10.522;2023-03-14T00:10:11;99807.94;;;10.57;100.00
56006;BME280;41888;44.696;10.522;2023-03-14T00:12:38;99804.34;;;10.52;100.00
56006;BME280;41888;44.696;10.522;2023-03-14T00:15:05;99785.47;;;10.53;100.00
56006;BME280;41888;44.696;10.522;2023-03-14T00:17:34;99770.25;;;10.42;100.00
56006;BME280;41888;44.696;10.522;2023-03-14T00:20:01;99755.81;;;10.32;100.00
56006;BME280;41888;44.696;10.522;2023-03-14T00:22:34;99744.38;;;10.31;100.00
56006;BME280;41888;44.696;10.522;2023-03-14T00:25:01;99770.19;;;10.31;100.00
56006;BME280;41888;44.696;10.522;2023-03-14T00:27:28;99754.44;;;10.29;100.00
56006;BME280;41888;44.696;10.522;2023-03-14T00:29:54;99752.50;;;10.18;100.00
56006;BME280;41888;44.696;10.522;2023-03-14T00:32:20;99774.38;;;10.20;100.00
56006;BME280;41888;44.696;10.522;2023-03-14T00:34:46;99767.38;;;10.26;100.00
56006;BME280;41888;44.696;10.522;2023-03-14T00:37:14;99761.06;;;10.20;100.00
56006;BME280;41888;44.696;10.522;2023-03-14T00:39:40;99751.22;;;10.21;100.00
56006;BME280;41888;44.696;10.522;2023-03-14T00:42:07;99733.28;;;10.16;100.00
56006;BME280;41888;44.696;10.522;2023-03-14T00:44:33;99731.47;;;10.10;100.00
56006;BME280;41888;44.696;10.522;2023-03-14T00:46:59;99729.25;;;10.07;100.00
56006;BME280;41888;44.696;10.522;2023-03-14T00:49:25;99705.47;;;9.94;100.00
56006;BME280;41888;44.696;10.522;2023-03-14T00:51:51;99679.31;;;9.91;100.00
56006;BME280;41888;44.696;10.522;2023-03-14T00:54:19;99674.81;;;9.91;100.00
56006;BME280;41888;44.696;10.522;2023-03-14T00:56:45;99667.28;;;9.88;100.00
56006;BME280;41888;44.696;10.522;2023-03-14T00:59:11;99668.69;;;9.91;100.00
56006;BME280;41888;44.696;10.522;2023-03-14T01:01:39;99672.97;;;9.92;100.00
56006;BME280;41888;44.696;10.522;2023-03-14T01:04:05;99674.81;;;9.91;100.00
56006;BME280;41888;44.696;10.522;2023-03-14T01:06:32;99670.16;;;9.87;100.00
56006;BME280;41888;44.696;10.522;2023-03-14T01:08:58;99672.91;;;9.73;100.00
56006;BME280;41888;44.696;10.522;2023-03-14T01:11:31;99657.94;;;9.79;100.00
56006;BME280;41888;44.696;10.522;2023-03-14T01:13:58;99664.13;;;9.73;100.00
56006;BME280;41888;44.696;10.522;2023-03-14T01:16:26;99663.56;;;9.71;100.00
56006;BME280;41888;44.696;10.522;2023-03-14T01:18:53;99661.97;;;9.63;100.00
56006;BME280;41888;44.696;10.522;2023-03-14T01:21:22;99663.13;;;9.49;100.00
56006;BME280;41888;44.696;10.522;2023-03-14T01:23:51;99659.84;;;9.47;100.00
56006;BME280;41888;44.696;10.522;2023-03-14T01:26:19;99645.22;;;9.38;100.00
56006;BME280;41888;44.696;10.522;2023-03-14T01:28:47;99641.56;;;9.39;100.00
56006;BME280;41888;44.696;10.522;2023-03-14T01:31:14;99642.09;;;9.48;100.00
56006;BME280;41888;44.696;10.522;2023-03-14T01:33:41;99629.72;;;9.60;100.00
56006;BME280;41888;44.696;10.522;2023-03-14T01:36:08;99633.41;;;9.59;100.00
56006;BME280;41888;44.696;10.522;2023-03-14T01:38:35;99640.06;;;9.68;100.00
56006;BME280;41888;44.696;10.522;2023-03-14T01:41:03;99627.41;;;9.70;100.00
56006;BME280;41888;44.696;10.522;2023-03-14T01:43:29;99637.81;;;9.71;100.00
56006;BME280;41888;44.696;10.522;2023-03-14T01:51:55;99636.53;;;9.74;100.00
56006;BME280;41888;44.696;10.522;2023-03-14T01:54:36;99641.81;;;9.81;100.00
56006;BME280;41888;44.696;10.522;2023-03-14T01:57:17;99605.22;;;9.83;100.00
56006;BME280;41888;44.696;10.522;2023-03-14T02:00:16;99600.38;;;9.73;100.00
56006;BME280;41888;44.696;10.522;2023-03-14T02:03:06;99618.81;;;9.93;100.00
56006;BME280;41888;44.696;10.522;2023-03-14T02:05:34;99601.44;;;9.72;100.00
56006;BME280;41888;44.696;10.522;2023-03-14T02:08:02;99593.88;;;9.69;100.00
56006;BME280;41888;44.696;10.522;2023-03-14T02:10:34;99594.41;;;9.59;100.00
56006;BME280;41888;44.696;10.522;2023-03-14T02:13:03;99611.97;;;9.79;100.00
56006;BME280;41888;44.696;10.522;2023-03-14T02:15:30;99579.47;;;9.58;100.00
56006;BME280;41888;44.696;10.522;2023-03-14T02:17:57;99590.81;;;9.47;100.00
56006;BME280;41888;44.696;10.522;2023-03-14T02:23:12;99577.50;;;9.54;100.00
56006;BME280;41888;44.696;10.522;2023-03-14T02:25:43;99588.09;;;9.54;100.00
56006;BME280;41888;44.696;10.522;2023-03-14T02:28:12;99573.00;;;9.54;100.00
56006;BME280;41888;44.696;10.522;2023-03-14T02:30:39;99571.66;;;9.45;100.00
56006;BME280;41888;44.696;10.522;2023-03-14T02:33:11;99580.81;;;9.49;100.00
56006;BME280;41888;44.696;10.522;2023-03-14T02:35:48;99587.94;;;9.49;100.00
56006;BME280;41888;44.696;10.522;2023-03-14T02:38:31;99572.03;;;9.49;100.00
56006;BME280;41888;44.696;10.522;2023-03-14T02:40:59;99559.19;;;9.46;100.00
56006;BME280;41888;44.696;10.522;2023-03-14T02:43:25;99562.72;;;9.40;100.00
56006;BME280;41888;44.696;10.522;2023-03-14T02:45:52;99551.44;;;9.44;100.00
56006;BME280;41888;44.696;10.522;2023-03-14T02:48:33;99553.19;;;9.32;100.00
56006;BME280;41888;44.696;10.522;2023-03-14T02:51:02;99544.91;;;9.22;100.00
56006;BME280;41888;44.696;10.522;2023-03-14T02:53:34;99535.16;;;9.16;100.00
56006;BME280;41888;44.696;10.522;2023-03-14T02:56:01;99534.63;;;9.07;100.00
56006;BME280;41888;44.696;10.522;2023-03-14T02:58:28;99523.28;;;9.18;100.00
56006;BME280;41888;44.696;10.522;2023-03-14T03:00:54;99522.31;;;9.13;100.00
56006;BME280;41888;44.696;10.522;2023-03-14T03:03:20;99526.94;;;9.24;100.00
56006;BME280;41888;44.696;10.522;2023-03-14T03:05:49;99516.41;;;9.36;100.00
56006;BME280;41888;44.696;10.522;2023-03-14T03:08:17;99499.72;;;9.28;100.00
56006;BME280;41888;44.696;10.522;2023-03-14T03:10:44;99495.66;;;9.26;100.00
56006;BME280;41888;44.696;10.522;2023-03-14T03:13:10;99484.81;;;9.27;100.00
56006;BME280;41888;44.696;10.522;2023-03-14T03:15:36;99469.50;;;9.29;100.00
56006;BME280;41888;44.696;10.522;2023-03-14T03:18:03;99447.50;;;9.22;100.00
56006;BME280;41888;44.696;10.522;2023-03-14T03:20:29;99461.69;;;8.92;100.00
56006;BME280;41888;44.696;10.522;2023-03-14T03:22:55;99457.31;;;9.04;100.00
56006;BME280;41888;44.696;10.522;2023-03-14T03:25:21;99478.19;;;9.18;100.00
56006;BME280;41888;44.696;10.522;2023-03-14T03:27:48;99458.34;;;9.21;100.00
56006;BME280;41888;44.696;10.522;2023-03-14T03:30:14;99455.56;;;9.34;100.00
56006;BME280;41888;44.696;10.522;2023-03-14T03:32:40;99480.47;;;9.33;100.00
56006;BME280;41888;44.696;10.522;2023-03-14T03:35:07;99473.25;;;9.58;100.00
56006;BME280;41888;44.696;10.522;2023-03-14T03:37:34;99466.84;;;9.48;100.00
56006;BME280;41888;44.696;10.522;2023-03-14T03:40:00;99510.66;;;9.75;100.00
56006;BME280;41888;44.696;10.522;2023-03-14T03:42:29;99467.66;;;9.66;100.00
56006;BME280;41888;44.696;10.522;2023-03-14T03:44:55;99494.44;;;9.65;100.00
56006;BME280;41888;44.696;10.522;2023-03-14T03:47:22;99455.69;;;9.57;100.00
56006;BME280;41888;44.696;10.522;2023-03-14T03:49:48;99467.22;;;9.51;100.00
56006;BME280;41888;44.696;10.522;2023-03-14T03:52:14;99459.47;;;9.50;100.00
56006;BME280;41888;44.696;10.522;2023-03-14T03:54:40;99436.47;;;9.44;100.00
56006;BME280;41888;44.696;10.522;2023-03-14T03:57:06;99416.63;;;9.46;100.00
56006;BME280;41888;44.696;10.522;2023-03-14T03:59:32;99353.59;;;9.23;100.00
56006;BME280;41888;44.696;10.522;2023-03-14T04:01:59;99322.69;;;9.11;100.00
56006;BME280;41888;44.696;10.522;2023-03-14T04:04:25;99336.94;;;9.16;100.00
56006;BME280;41888;44.696;10.522;2023-03-14T04:06:51;99324.53;;;9.10;100.00
56006;BME280;41888;44.696;10.522;2023-03-14T04:09:17;99316.81;;;9.09;100.00
56006;BME280;41888;44.696;10.522;2023-03-14T04:11:43;99316.53;;;8.99;100.00
56006;BME280;41888;44.696;10.522;2023-03-14T04:14:10;99317.69;;;9.21;100.00
56006;BME280;41888;44.696;10.522;2023-03-14T04:16:36;99321.41;;;9.20;100.00
56006;BME280;41888;44.696;10.522;2023-03-14T04:19:02;99305.38;;;9.26;100.00
56006;BME280;41888;44.696;10.522;2023-03-14T04:21:29;99312.84;;;9.18;100.00
56006;BME280;41888;44.696;10.522;2023-03-14T04:23:55;99288.13;;;8.99;100.00
56006;BME280;41888;44.696;10.522;2023-03-14T04:26:21;99290.28;;;8.90;100.00
56006;BME280;41888;44.696;10.522;2023-03-14T04:28:47;99289.19;;;8.80;100.00
56006;BME280;41888;44.696;10.522;2023-03-14T04:31:19;99284.84;;;8.85;100.00
56006;BME280;41888;44.696;10.522;2023-03-14T04:33:46;99300.75;;;8.85;100.00
56006;BME280;41888;44.696;10.522;2023-03-14T04:36:13;99337.22;;;8.90;100.00
56006;BME280;41888;44.696;10.522;2023-03-14T04:38:40;99321.66;;;8.75;100.00
56006;BME280;41888;44.696;10.522;2023-03-14T04:41:07;99292.66;;;8.80;100.00
56006;BME280;41888;44.696;10.522;2023-03-14T04:43:33;99294.84;;;8.83;100.00
56006;BME280;41888;44.696;10.522;2023-03-14T04:46:00;99249.03;;;8.58;100.00
56006;BME280;41888;44.696;10.522;2023-03-14T04:48:26;99239.59;;;8.62;100.00
56006;BME280;41888;44.696;10.522;2023-03-14T04:50:53;99217.00;;;8.60;100.00
56006;BME280;41888;44.696;10.522;2023-03-14T04:53:19;99195.72;;;8.66;100.00
56006;BME280;41888;44.696;10.522;2023-03-14T04:55:53;99180.38;;;8.68;100.00
56006;BME280;41888;44.696;10.522;2023-03-14T04:58:20;99192.31;;;8.59;100.00
56006;BME280;41888;44.696;10.522;2023-03-14T05:00:47;99168.59;;;8.46;100.00
56006;BME280;41888;44.696;10.522;2023-03-14T05:03:17;99171.13;;;8.59;100.00
56006;BME280;41888;44.696;10.522;2023-03-14T05:05:44;99161.81;;;8.68;100.00
56006;BME280;41888;44.696;10.522;2023-03-14T05:08:11;99142.56;;;8.61;100.00
56006;BME280;41888;44.696;10.522;2023-03-14T05:10:37;99109.19;;;8.54;100.00
56006;BME280;41888;44.696;10.522;2023-03-14T05:13:04;99162.81;;;8.56;100.00
56006;BME280;41888;44.696;10.522;2023-03-14T05:15:30;99176.06;;;8.56;100.00
56006;BME280;41888;44.696;10.522;2023-03-14T05:17:56;99195.66;;;8.55;100.00
56006;BME280;41888;44.696;10.522;2023-03-14T05:20:22;99230.63;;;8.63;100.00
56006;BME280;41888;44.696;10.522;2023-03-14T05:22:49;99244.25;;;8.67;100.00
56006;BME280;41888;44.696;10.522;2023-03-14T05:25:15;99247.66;;;8.56;100.00
56006;BME280;41888;44.696;10.522;2023-03-14T05:27:41;99238.16;;;8.66;100.00
56006;BME280;41888;44.696;10.522;2023-03-14T05:30:08;99250.00;;;8.64;100.00
56006;BME280;41888;44.696;10.522;2023-03-14T05:32:34;99287.84;;;8.71;100.00
56006;BME280;41888;44.696;10.522;2023-03-14T05:35:00;99311.28;;;8.74;100.00
56006;BME280;41888;44.696;10.522;2023-03-14T05:37:27;99298.53;;;8.64;100.00
56006;BME280;41888;44.696;10.522;2023-03-14T05:39:53;99318.06;;;8.70;100.00
56006;BME280;41888;44.696;10.522;2023-03-14T05:42:20;99314.66;;;8.63;100.00
56006;BME280;41888;44.696;10.522;2023-03-14T05:44:46;99320.19;;;8.61;100.00
56006;BME280;41888;44.696;10.522;2023-03-14T05:47:12;99304.84;;;8.63;100.00
56006;BME280;41888;44.696;10.522;2023-03-14T05:49:38;99333.84;;;9.01;100.00
56006;BME280;41888;44.696;10.522;2023-03-14T05:52:05;99345.19;;;8.90;100.00
56006;BME280;41888;44.696;10.522;2023-03-14T05:54:31;99329.31;;;8.83;100.00
56006;BME280;41888;44.696;10.522;2023-03-14T05:56:57;99327.88;;;8.87;100.00
56006;BME280;41888;44.696;10.522;2023-03-14T05:59:23;99342.38;;;8.85;100.00
56006;BME280;41888;44.696;10.522;2023-03-14T06:01:49;99327.88;;;8.87;100.00
56006;BME280;41888;44.696;10.522;2023-03-14T06:04:15;99312.38;;;8.84;100.00
56006;BME280;41888;44.696;10.522;2023-03-14T06:06:42;99336.56;;;8.95;100.00
56006;BME280;41888;44.696;10.522;2023-03-14T06:09:08;99354.69;;;8.98;100.00
56006;BME280;41888;44.696;10.522;2023-03-14T06:11:34;99345.19;;;8.90;100.00
56006;BME280;41888;44.696;10.522;2023-03-14T06:14:00;99342.00;;;9.00;100.00
56006;BME280;41888;44.696;10.522;2023-03-14T06:16:26;99362.06;;;8.96;100.00
56006;BME280;41888;44.696;10.522;2023-03-14T06:18:53;99369.66;;;9.10;100.00
56006;BME280;41888;44.696;10.522;2023-03-14T06:21:19;99348.28;;;9.23;100.00
56006;BME280;41888;44.696;10.522;2023-03-14T06:23:45;99320.47;;;9.26;100.00
56006;BME280;41888;44.696;10.522;2023-03-14T06:26:12;99299.03;;;9.27;100.00
56006;BME280;41888;44.696;10.522;2023-03-14T06:28:38;99322.53;;;9.42;100.00
56006;BME280;41888;44.696;10.522;2023-03-14T06:31:05;99343.00;;;9.53;100.00
56006;BME280;41888;44.696;10.522;2023-03-14T06:33:31;99342.72;;;9.43;100.00
56006;BME280;41888;44.696;10.522;2023-03-14T06:35:57;99315.16;;;9.44;100.00
56006;BME280;41888;44.696;10.522;2023-03-14T06:38:23;99318.03;;;9.43;100.00
56006;BME280;41888;44.696;10.522;2023-03-14T06:40:50;99309.25;;;9.42;100.00
56006;BME280;41888;44.696;10.522;2023-03-14T06:43:16;99303.91;;;9.60;100.00
56006;BME280;41888;44.696;10.522;2023-03-14T06:45:42;99305.13;;;9.76;100.00
56006;BME280;41888;44.696;10.522;2023-03-14T06:48:08;99296.81;;;9.84;100.00
56006;BME280;41888;44.696;10.522;2023-03-14T06:50:35;99302.97;;;9.96;100.00
56006;BME280;41888;44.696;10.522;2023-03-14T06:53:01;99312.88;;;9.89;100.00
56006;BME280;41888;44.696;10.522;2023-03-14T06:55:28;99318.53;;;10.23;100.00
56006;BME280;41888;44.696;10.522;2023-03-14T06:57:54;99303.88;;;11.18;100.00
56006;BME280;41888;44.696;10.522;2023-03-14T07:00:20;99307.72;;;14.25;100.00
56006;BME280;41888;44.696;10.522;2023-03-14T07:02:46;99308.81;;;13.70;100.00
56006;BME280;41888;44.696;10.522;2023-03-14T07:05:13;99309.19;;;13.08;100.00
56006;BME280;41888;44.696;10.522;2023-03-14T07:07:39;99298.13;;;13.70;100.00
56006;BME280;41888;44.696;10.522;2023-03-14T07:10:05;99300.31;;;13.46;100.00
56006;BME280;41888;44.696;10.522;2023-03-14T07:12:33;99299.13;;;12.05;100.00
56006;BME280;41888;44.696;10.522;2023-03-14T07:14:59;99300.00;;;11.37;100.00
56006;BME280;41888;44.696;10.522;2023-03-14T07:17:25;99318.03;;;11.07;100.00
56006;BME280;41888;44.696;10.522;2023-03-14T07:19:51;99302.56;;;10.69;100.00
56006;BME280;41888;44.696;10.522;2023-03-14T07:22:17;99301.09;;;10.50;100.00
56006;BME280;41888;44.696;10.522;2023-03-14T07:24:44;99285.78;;;10.92;100.00
56006;BME280;41888;44.696;10.522;2023-03-14T07:27:10;99278.41;;;11.22;100.00
56006;BME280;41888;44.696;10.522;2023-03-14T07:29:36;99279.53;;;10.98;100.00
56006;BME280;41888;44.696;10.522;2023-03-14T07:32:02;99281.56;;;10.68;100.00
56006;BME280;41888;44.696;10.522;2023-03-14T07:34:28;99261.44;;;10.48;100.00
56006;BME280;41888;44.696;10.522;2023-03-14T07:36:55;99280.41;;;10.40;100.00
56006;BME280;41888;44.696;10.522;2023-03-14T07:39:21;99281.06;;;10.47;100.00
56006;BME280;41888;44.696;10.522;2023-03-14T07:41:47;99275.75;;;10.47;100.00
56006;BME280;41888;44.696;10.522;2023-03-14T07:44:13;99293.06;;;10.96;100.00
56006;BME280;41888;44.696;10.522;2023-03-14T07:46:39;99299.50;;;11.12;100.00
56006;BME280;41888;44.696;10.522;2023-03-14T07:49:06;99287.44;;;11.21;100.00
56006;BME280;41888;44.696;10.522;2023-03-14T07:51:32;99283.25;;;10.85;100.00
56006;BME280;41888;44.696;10.522;2023-03-14T07:53:58;99262.81;;;11.42;100.00
56006;BME280;41888;44.696;10.522;2023-03-14T07:56:24;99265.19;;;11.56;100.00
56006;BME280;41888;44.696;10.522;2023-03-14T07:58:50;99250.00;;;11.84;100.00
56006;BME280;41888;44.696;10.522;2023-03-14T08:01:17;99243.75;;;11.62;100.00
56006;BME280;41888;44.696;10.522;2023-03-14T08:03:43;99252.25;;;11.48;100.00
56006;BME280;41888;44.696;10.522;2023-03-14T08:06:09;99260.13;;;11.71;100.00
56006;BME280;41888;44.696;10.522;2023-03-14T08:08:35;99251.88;;;11.84;100.00
56006;BME280;41888;44.696;10.522;2023-03-14T08:11:05;99261.31;;;12.42;100.00
56006;BME280;41888;44.696;10.522;2023-03-14T08:13:34;99264.97;;;13.18;100.00
56006;BME280;41888;44.696;10.522;2023-03-14T08:16:01;99256.56;;;13.52;100.00
56006;BME280;41888;44.696;10.522;2023-03-14T08:18:27;99256.66;;;13.14;100.00
56006;BME280;41888;44.696;10.522;2023-03-14T08:20:53;99238.00;;;13.41;100.00
56006;BME280;41888;44.696;10.522;2023-03-14T08:23:19;99236.31;;;13.35;100.00
56006;BME280;41888;44.696;10.522;2023-03-14T08:25:48;99237.38;;;13.34;100.00
56006;BME280;41888;44.696;10.522;2023-03-14T08:28:14;99243.22;;;13.31;100.00
56006;BME280;41888;44.696;10.522;2023-03-14T08:30:40;99247.81;;;13.62;100.00
56006;BME280;41888;44.696;10.522;2023-03-14T08:33:06;99264.09;;;13.87;100.00
56006;BME280;41888;44.696;10.522;2023-03-14T08:35:32;99261.53;;;13.71;100.00
56006;BME280;41888;44.696;10.522;2023-03-14T08:37:58;99259.41;;;13.46;100.00
56006;BME280;41888;44.696;10.522;2023-03-14T08:40:25;99267.53;;;13.56;100.00
56006;BME280;41888;44.696;10.522;2023-03-14T08:42:51;99268.56;;;13.28;100.00
56006;BME280;41888;44.696;10.522;2023-03-14T08:45:17;99253.66;;;13.59;100.00
56006;BME280;41888;44.696;10.522;2023-03-14T08:47:44;99249.97;;;13.65;100.00
56006;BME280;41888;44.696;10.522;2023-03-14T08:50:11;99257.31;;;13.48;100.00
56006;BME280;41888;44.696;10.522;2023-03-14T08:52:38;99265.06;;;14.08;100.00
56006;BME280;41888;44.696;10.522;2023-03-14T08:55:07;99262.78;;;13.90;100.00
56006;BME280;41888;44.696;10.522;2023-03-14T08:57:34;99267.31;;;13.89;100.00
56006;BME280;41888;44.696;10.522;2023-03-14T09:00:00;99267.53;;;14.15;100.00
56006;BME280;41888;44.696;10.522;2023-03-14T09:02:27;99264.78;;;14.05;100.00
56006;BME280;41888;44.696;10.522;2023-03-14T09:04:53;99267.41;;;14.00;100.00
56006;BME280;41888;44.696;10.522;2023-03-14T09:07:20;99271.25;;;13.55;100.00
56006;BME280;41888;44.696;10.522;2023-03-14T09:09:46;99272.72;;;13.41;100.00
56006;BME280;41888;44.696;10.522;2023-03-14T09:12:12;99283.25;;;13.26;100.00
56006;BME280;41888;44.696;10.522;2023-03-14T09:14:39;99283.06;;;13.32;100.00
56006;BME280;41888;44.696;10.522;2023-03-14T09:17:05;99272.47;;;13.42;100.00
56006;BME280;41888;44.696;10.522;2023-03-14T09:19:31;99265.00;;;13.01;100.00
56006;BME280;41888;44.696;10.522;2023-03-14T09:21:57;99270.94;;;13.25;100.00
56006;BME280;41888;44.696;10.522;2023-03-14T09:24:24;99269.00;;;13.69;100.00
56006;BME280;41888;44.696;10.522;2023-03-14T09:26:50;99271.97;;;13.72;100.00
56006;BME280;41888;44.696;10.522;2023-03-14T09:29:16;99277.41;;;13.56;100.00
56006;BME280;41888;44.696;10.522;2023-03-14T09:31:42;99281.44;;;13.31;100.00
56006;BME280;41888;44.696;10.522;2023-03-14T09:34:08;99287.66;;;13.15;100.00
56006;BME280;41888;44.696;10.522;2023-03-14T09:36:35;99290.41;;;13.03;100.00
56006;BME280;41888;44.696;10.522;2023-03-14T09:39:04;99303.94;;;12.97;100.00
56006;BME280;41888;44.696;10.522;2023-03-14T09:41:39;99299.81;;;13.28;100.00
56006;BME280;41888;44.696;10.522;2023-03-14T09:46:44;99299.03;;;13.54;100.00
56006;BME280;41888;44.696;10.522;2023-03-14T09:51:47;99286.66;;;14.02;100.00
56006;BME280;41888;44.696;10.522;2023-03-14T09:54:36;99273.22;;;15.17;100.00
56006;BME280;41888;44.696;10.522;2023-03-14T09:57:05;99279.56;;;15.69;100.00
56006;BME280;41888;44.696;10.522;2023-03-14T09:59:32;99298.88;;;15.76;100.00
56006;BME280;41888;44.696;10.522;2023-03-14T10:02:19;99283.06;;;15.94;100.00
56006;BME280;41888;44.696;10.522;2023-03-14T10:04:46;99287.06;;;16.78;100.00
56006;BME280;41888;44.696;10.522;2023-03-14T10:07:30;99291.38;;;16.54;100.00
56006;BME280;41888;44.696;10.522;2023-03-14T10:09:57;99294.59;;;15.75;100.00
56006;BME280;41888;44.696;10.522;2023-03-14T10:12:35;99310.88;;;14.91;100.00
56006;BME280;41888;44.696;10.522;2023-03-14T10:15:10;99302.44;;;14.67;100.00
56006;BME280;41888;44.696;10.522;2023-03-14T10:17:46;99300.81;;;14.66;100.00
56006;BME280;41888;44.696;10.522;2023-03-14T10:20:37;99300.25;;;15.06;100.00
56006;BME280;41888;44.696;10.522;2023-03-14T10:25:46;99295.16;;;16.42;100.00
56006;BME280;41888;44.696;10.522;2023-03-14T10:28:45;99302.41;;;16.62;100.00
56006;BME280;41888;44.696;10.522;2023-03-14T10:31:12;99308.28;;;16.03;100.00
56006;BME280;41888;44.696;10.522;2023-03-14T10:33:39;99310.44;;;16.52;100.00
56006;BME280;41888;44.696;10.522;2023-03-14T10:36:23;99279.47;;;17.54;100.00
56006;BME280;41888;44.696;10.522;2023-03-14T10:39:15;99288.19;;;18.19;100.00
56006;BME280;41888;44.696;10.522;2023-03-14T10:42:13;99288.44;;;16.65;100.00
56006;BME280;41888;44.696;10.522;2023-03-14T10:44:37;99288.72;;;16.33;100.00
56006;BME280;41888;44.696;10.522;2023-03-14T10:47:05;99275.81;;;15.70;100.00
56006;BME280;41888;44.696;10.522;2023-03-14T10:49:37;99264.03;;;15.81;100.00
56006;BME280;41888;44.696;10.522;2023-03-14T10:52:28;99264.50;;;15.52;100.00
56006;BME280;41888;44.696;10.522;2023-03-14T10:55:01;99256.69;;;15.46;100.00
56006;BME280;41888;44.696;10.522;2023-03-14T10:57:28;99251.94;;;15.68;100.00
56006;BME280;41888;44.696;10.522;2023-03-14T10:59:55;99248.91;;;15.49;100.00
56006;BME280;41888;44.696;10.522;2023-03-14T11:02:35;99238.78;;;15.51;100.00
56006;BME280;41888;44.696;10.522;2023-03-14T11:08:48;99221.09;;;16.26;100.00
56006;BME280;41888;44.696;10.522;2023-03-14T11:11:40;99215.81;;;17.45;100.00
56006;BME280;41888;44.696;10.522;2023-03-14T11:14:36;99214.19;;;17.44;100.00
56006;BME280;41888;44.696;10.522;2023-03-14T11:22:46;99209.47;;;18.61;100.00
56006;BME280;41888;44.696;10.522;2023-03-14T11:28:15;99192.09;;;19.85;100.00
56006;BME280;41888;44.696;10.522;2023-03-14T11:33:23;99185.22;;;21.20;94.88
56006;BME280;41888;44.696;10.522;2023-03-14T11:36:06;99204.69;;;21.89;91.31
56006;BME280;41888;44.696;10.522;2023-03-14T11:38:50;99197.91;;;20.24;96.93
56006;BME280;41888;44.696;10.522;2023-03-14T11:43:58;99188.69;;;17.80;100.00
56006;BME280;41888;44.696;10.522;2023-03-14T11:46:30;99178.72;;;17.42;100.00
56006;BME280;41888;44.696;10.522;2023-03-14T11:49:11;99190.38;;;16.68;100.00
56006;BME280;41888;44.696;10.522;2023-03-14T11:51:41;99187.78;;;16.32;100.00
56006;BME280;41888;44.696;10.522;2023-03-14T11:54:42;99181.16;;;15.79;100.00
56006;BME280;41888;44.696;10.522;2023-03-14T11:57:18;99168.28;;;15.56;100.00
56006;BME280;41888;44.696;10.522;2023-03-14T12:02:41;99166.13;;;15.58;100.00
56006;BME280;41888;44.696;10.522;2023-03-14T12:05:33;99157.81;;;15.75;100.00
56006;BME280;41888;44.696;10.522;2023-03-14T12:10:49;99158.91;;;18.24;100.00
56006;BME280;41888;44.696;10.522;2023-03-14T12:13:17;99160.06;;;17.89;100.00
56006;BME280;41888;44.696;10.522;2023-03-14T12:15:56;99157.91;;;18.44;100.00
56006;BME280;41888;44.696;10.522;2023-03-14T12:18:34;99156.75;;;18.74;100.00
56006;BME280;41888;44.696;10.522;2023-03-14T12:21:07;99156.00;;;18.44;100.00
56006;BME280;41888;44.696;10.522;2023-03-14T12:23:37;99149.50;;;18.45;100.00
56006;BME280;41888;44.696;10.522;2023-03-14T12:26:23;99150.94;;;18.85;100.00
56006;BME280;41888;44.696;10.522;2023-03-14T12:29:14;99157.75;;;19.02;100.00
56006;BME280;41888;44.696;10.522;2023-03-14T12:31:48;99150.75;;;19.01;100.00
56006;BME280;41888;44.696;10.522;2023-03-14T12:42:35;99138.69;;;17.35;100.00
56006;BME280;41888;44.696;10.522;2023-03-14T12:45:24;99141.91;;;17.76;100.00
56006;BME280;41888;44.696;10.522;2023-03-14T12:48:08;99143.63;;;18.43;100.00
56006;BME280;41888;44.696;10.522;2023-03-14T13:01:16;99126.13;;;19.07;100.00
56006;BME280;41888;44.696;10.522;2023-03-14T13:03:59;99135.16;;;18.31;100.00
56006;BME280;41888;44.696;10.522;2023-03-14T13:11:56;99133.72;;;16.69;100.00
56006;BME280;41888;44.696;10.522;2023-03-14T13:14:28;99133.31;;;16.96;100.00
56006;BME280;41888;44.696;10.522;2023-03-14T13:16:59;99131.47;;;17.69;100.00
56006;BME280;41888;44.696;10.522;2023-03-14T13:19:29;99133.38;;;18.22;100.00
56006;BME280;41888;44.696;10.522;2023-03-14T13:22:04;99138.13;;;18.30;100.00
56006;BME280;41888;44.696;10.522;2023-03-14T13:24:34;99132.69;;;18.59;100.00
56006;BME280;41888;44.696;10.522;2023-03-14T13:27:01;99136.59;;;18.24;100.00
56006;BME280;41888;44.696;10.522;2023-03-14T13:29:33;99134.28;;;18.12;100.00
56006;BME280;41888;44.696;10.522;2023-03-14T13:32:12;99135.69;;;17.81;100.00
56006;BME280;41888;44.696;10.522;2023-03-14T13:34:39;99131.91;;;17.77;100.00
56006;BME280;41888;44.696;10.522;2023-03-14T13:37:19;99124.66;;;18.06;100.00
56006;BME280;41888;44.696;10.522;2023-03-14T13:39:55;99126.78;;;18.33;100.00
56006;BME280;41888;44.696;10.522;2023-03-14T13:42:29;99120.63;;;18.03;100.00
56006;BME280;41888;44.696;10.522;2023-03-14T13:44:57;99120.19;;;17.67;100.00
56006;BME280;41888;44.696;10.522;2023-03-14T13:47:26;99123.09;;;18.00;100.00
56006;BME280;41888;44.696;10.522;2023-03-14T13:49:53;99118.03;;;18.22;100.00
56006;BME280;41888;44.696;10.522;2023-03-14T13:52:31;99122.81;;;18.01;100.00
56006;BME280;41888;44.696;10.522;2023-03-14T13:55:00;99118.91;;;17.89;100.00
56006;BME280;41888;44.696;10.522;2023-03-14T13:57:27;99122.09;;;18.43;100.00
56006;BME280;41888;44.696;10.522;2023-03-14T14:00:03;99110.34;;;18.10;100.00